Abingdon, United Kingdom
Current Conditions -  °F | °C
As of 3:50 PM on Friday 24 Oct 2014 (Local Time) from EGUB Reporting Station
Broken Clouds Broken Clouds  
Wind Chill: 61°   Ceiling: 2500
Heat Index: 61°   Visibility: 6mi
Dew Point: 57°   Wind: 8mph
Humidity: 88%   Direction: 180°S
Pressure: 29.88"   Gusts: NA
Location:  51.67°N, 1.29°W
Report Text: EGUB 241450Z 18007KT 9999 SCT014 BKN025 16/14 Q1012 GRN NOSIG
Loading
Personal Weather Stations






























Interactive Weather Map
Tropical Storm Tracking
New forecast layout! Learn more

10-Day Weather Forecast

Advertisements
Track Severe Weather on mobile